createdAt,value
2019-01-08T00:00:51.262Z,61.49
2019-01-08T00:01:54.741Z,61.53
2019-01-08T00:02:58.235Z,61.62
2019-01-08T00:04:01.813Z,61.78
2019-01-08T00:05:05.542Z,61.70
2019-01-08T00:06:09.046Z,61.74
2019-01-08T00:07:12.541Z,61.79
2019-01-08T00:08:16.039Z,61.80
2019-01-08T00:09:19.546Z,61.87
2019-01-08T00:10:23.162Z,61.85
2019-01-08T00:11:26.656Z,61.80
2019-01-08T00:12:30.187Z,61.76
2019-01-08T00:13:33.687Z,61.75
2019-01-08T00:14:37.190Z,61.72
2019-01-08T00:15:40.736Z,61.80
2019-01-08T00:16:44.251Z,61.85
2019-01-08T00:17:47.741Z,61.93
2019-01-08T00:18:51.251Z,61.92
2019-01-08T00:19:54.731Z,61.85
2019-01-08T00:20:58.268Z,61.82
2019-01-08T00:22:01.840Z,61.84
2019-01-08T00:23:05.402Z,61.86
2019-01-08T00:24:08.895Z,61.92
2019-01-08T00:25:12.460Z,61.90
2019-01-08T00:26:15.980Z,61.94
2019-01-08T00:27:19.561Z,62.06
2019-01-08T00:28:23.140Z,62.20
2019-01-08T00:29:26.653Z,62.14
2019-01-08T00:30:30.140Z,62.26
2019-01-08T00:31:33.759Z,62.39
2019-01-08T00:32:37.250Z,62.44
2019-01-08T00:33:40.811Z,62.47
2019-01-08T00:34:44.381Z,62.46
2019-01-08T00:35:47.949Z,62.48
2019-01-08T00:36:51.537Z,62.76
2019-01-08T00:37:55.036Z,62.95
2019-01-08T00:38:58.608Z,62.94
2019-01-08T00:40:02.177Z,62.96
2019-01-08T00:41:05.699Z,62.97
2019-01-08T00:42:09.231Z,62.91
2019-01-08T00:43:12.708Z,62.92
2019-01-08T00:44:16.205Z,63.05
2019-01-08T00:45:19.839Z,63.02
2019-01-08T00:46:23.351Z,62.98
2019-01-08T00:47:26.975Z,62.82
2019-01-08T00:48:30.477Z,62.57
2019-01-08T00:49:33.964Z,62.60
2019-01-08T00:50:37.467Z,62.84
2019-01-08T00:51:41.065Z,63.09
2019-01-08T00:52:44.576Z,63.05
2019-01-08T00:53:48.137Z,62.99
2019-01-08T00:54:51.633Z,62.97
2019-01-08T00:55:55.134Z,62.90
2019-01-08T00:56:58.649Z,63.04
2019-01-08T00:58:02.216Z,63.00
2019-01-08T00:59:05.772Z,62.89
2019-01-08T01:00:10.098Z,62.78
2019-01-08T01:01:13.659Z,62.69
2019-01-08T01:02:17.252Z,62.81
2019-01-08T01:03:20.894Z,62.88
2019-01-08T01:04:24.379Z,62.96
2019-01-08T01:05:27.909Z,63.03
2019-01-08T01:06:31.404Z,63.29
2019-01-08T01:07:34.926Z,63.52
2019-01-08T01:08:38.436Z,63.64
2019-01-08T01:09:41.927Z,63.62
2019-01-08T01:10:45.432Z,63.59
2019-01-08T01:11:48.966Z,63.62
2019-01-08T01:12:52.536Z,63.46
2019-01-08T01:13:56.051Z,63.59
2019-01-08T01:14:59.578Z,63.81
2019-01-08T01:16:03.197Z,63.89
2019-01-08T01:17:06.756Z,63.95
2019-01-08T01:18:10.257Z,63.97
2019-01-08T01:19:13.753Z,63.95
2019-01-08T01:20:17.327Z,63.87
2019-01-08T01:21:20.865Z,63.70
2019-01-08T01:22:24.402Z,63.48
2019-01-08T01:23:28.000Z,63.27
2019-01-08T01:24:31.543Z,63.12
2019-01-08T01:25:35.037Z,63.08
2019-01-08T01:26:38.538Z,63.15
2019-01-08T01:27:42.073Z,63.13
2019-01-08T01:28:45.569Z,63.14
2019-01-08T01:29:49.074Z,63.44
2019-01-08T01:30:52.588Z,63.67
2019-01-08T01:31:56.088Z,63.82
2019-01-08T01:32:59.595Z,63.96
2019-01-08T01:34:03.326Z,63.97
2019-01-08T01:35:06.930Z,63.91
2019-01-08T01:36:10.418Z,63.94
2019-01-08T01:37:13.924Z,63.89
2019-01-08T01:38:17.445Z,64.01
2019-01-08T01:39:20.996Z,64.16
2019-01-08T01:40:24.519Z,64.23
2019-01-08T01:41:28.012Z,64.36
2019-01-08T01:42:31.528Z,64.38
2019-01-08T01:43:35.027Z,64.32
2019-01-08T01:44:38.580Z,64.32
2019-01-08T01:45:42.158Z,64.24
2019-01-08T01:46:45.643Z,63.91
2019-01-08T01:47:49.154Z,63.84
2019-01-08T01:48:52.681Z,63.75
2019-01-08T01:49:56.158Z,63.83
2019-01-08T01:50:59.682Z,63.72
2019-01-08T01:52:03.270Z,63.63
2019-01-08T01:53:06.749Z,63.83
2019-01-08T01:54:10.292Z,63.91
2019-01-08T01:55:13.926Z,64.08
2019-01-08T01:56:17.445Z,64.13
2019-01-08T01:57:21.145Z,64.13
2019-01-08T01:58:24.668Z,64.05
2019-01-08T01:59:28.173Z,64.13
2019-01-08T02:00:31.671Z,64.11
2019-01-08T02:01:35.157Z,63.99
2019-01-08T02:02:38.672Z,64.01
2019-01-08T02:03:42.175Z,63.94
2019-01-08T02:04:46.462Z,63.80
2019-01-08T02:05:49.970Z,63.82
2019-01-08T02:06:53.442Z,63.83
2019-01-08T02:07:56.942Z,63.89
2019-01-08T02:09:00.558Z,63.93
2019-01-08T02:10:05.383Z,63.85
2019-01-08T02:11:12.032Z,63.84
2019-01-08T02:12:15.534Z,63.74
2019-01-08T02:13:19.080Z,63.69
2019-01-08T02:14:22.625Z,63.67
2019-01-08T02:15:26.097Z,63.85
2019-01-08T02:16:29.674Z,63.90
2019-01-08T02:17:33.159Z,63.90
2019-01-08T02:18:36.643Z,63.72
2019-01-08T02:19:40.180Z,63.67
2019-01-08T02:20:43.866Z,63.59
2019-01-08T02:21:47.342Z,63.67
2019-01-08T02:22:50.832Z,63.73
2019-01-08T02:23:54.350Z,63.73
2019-01-08T02:24:57.874Z,63.75
2019-01-08T02:26:01.443Z,63.71
2019-01-08T02:27:05.096Z,63.59
2019-01-08T02:28:08.651Z,63.64
2019-01-08T02:29:16.526Z,63.76
2019-01-08T02:30:17.531Z,63.75
2019-01-08T02:31:21.041Z,63.92
2019-01-08T02:32:24.557Z,64.03
2019-01-08T02:33:28.172Z,64.12
2019-01-08T02:34:31.699Z,64.15
2019-01-08T02:35:35.294Z,64.12
2019-01-08T02:36:38.787Z,64.09
2019-01-08T02:37:42.424Z,64.03
2019-01-08T02:38:45.925Z,63.89
2019-01-08T02:39:49.485Z,64.16
2019-01-08T02:40:53.024Z,64.28
2019-01-08T02:41:56.662Z,64.17
2019-01-08T02:43:00.290Z,64.25
2019-01-08T02:44:04.025Z,64.16
2019-01-08T02:45:07.829Z,64.14
2019-01-08T02:46:11.447Z,64.14
2019-01-08T02:47:15.119Z,63.92
2019-01-08T02:48:18.599Z,63.85
2019-01-08T02:49:22.121Z,64.02
2019-01-08T02:50:25.680Z,63.93
2019-01-08T02:51:29.227Z,63.93
2019-01-08T02:52:32.750Z,63.98
2019-01-08T02:53:36.239Z,63.95
2019-01-08T02:54:39.850Z,63.91
2019-01-08T02:55:43.442Z,63.88
2019-01-08T02:56:46.953Z,63.83
2019-01-08T02:57:50.463Z,63.86
2019-01-08T02:58:53.968Z,63.83
2019-01-08T02:59:57.480Z,63.79
2019-01-08T03:01:01.015Z,63.79
2019-01-08T03:02:04.920Z,63.82
2019-01-08T03:03:08.433Z,63.80
2019-01-08T03:04:11.983Z,64.19
2019-01-08T03:05:15.543Z,64.11
2019-01-08T03:06:19.122Z,64.28
2019-01-08T03:07:22.654Z,64.46
2019-01-08T03:08:26.159Z,64.47
2019-01-08T03:09:31.365Z,64.33
2019-01-08T03:10:34.929Z,64.31
2019-01-08T03:11:38.514Z,64.48
2019-01-08T03:12:42.079Z,64.49
2019-01-08T03:13:45.712Z,64.40
2019-01-08T03:14:49.344Z,64.42
2019-01-08T03:15:52.902Z,64.42
2019-01-08T03:16:56.407Z,64.35
2019-01-08T03:17:59.943Z,64.26
2019-01-08T03:19:03.697Z,64.26
2019-01-08T03:20:07.945Z,64.20
2019-01-08T03:21:11.521Z,64.32
2019-01-08T03:22:15.071Z,64.39
2019-01-08T03:23:18.627Z,64.44
2019-01-08T03:24:22.233Z,64.38
2019-01-08T03:25:25.751Z,64.41
2019-01-08T03:26:29.255Z,64.48
2019-01-08T03:27:32.767Z,64.54
2019-01-08T03:28:36.331Z,64.38
2019-01-08T03:29:39.886Z,64.19
2019-01-08T03:30:44.923Z,64.05
2019-01-08T03:31:48.428Z,64.08
2019-01-08T03:32:51.900Z,64.32
2019-01-08T03:33:55.435Z,64.53
2019-01-08T03:34:58.929Z,64.68
2019-01-08T03:36:02.552Z,64.72
2019-01-08T03:37:06.059Z,64.73
2019-01-08T03:38:09.555Z,64.75
2019-01-08T03:39:13.089Z,64.72
2019-01-08T03:40:16.583Z,64.66
2019-01-08T03:41:20.066Z,64.70
2019-01-08T03:42:23.558Z,64.76
2019-01-08T03:43:27.142Z,64.88
2019-01-08T03:44:30.660Z,64.85
2019-01-08T03:45:34.210Z,64.83
2019-01-08T03:46:37.752Z,64.57
2019-01-08T03:47:41.260Z,64.48
2019-01-08T03:48:44.864Z,64.57
2019-01-08T03:49:48.454Z,64.51
2019-01-08T03:50:51.950Z,64.47
2019-01-08T03:51:55.462Z,64.53
2019-01-08T03:52:59.027Z,64.54
2019-01-08T03:54:02.549Z,64.46
2019-01-08T03:55:06.133Z,64.06
2019-01-08T03:56:09.647Z,63.79
2019-01-08T03:57:13.169Z,63.86
2019-01-08T03:58:16.691Z,63.90
2019-01-08T03:59:20.226Z,63.88
2019-01-08T04:00:23.792Z,63.78
2019-01-08T04:01:27.363Z,63.74
2019-01-08T04:02:30.867Z,63.61
2019-01-08T04:03:34.370Z,63.48
2019-01-08T04:04:37.925Z,63.54
2019-01-08T04:05:41.460Z,63.43
2019-01-08T04:06:45.034Z,63.30
2019-01-08T04:07:48.540Z,63.21
2019-01-08T04:08:52.116Z,63.08
2019-01-08T04:09:55.644Z,62.92
2019-01-08T04:10:59.190Z,62.65
2019-01-08T04:12:02.757Z,62.41
2019-01-08T04:13:06.397Z,62.24
2019-01-08T04:14:09.904Z,62.05
2019-01-08T04:15:13.393Z,61.76
2019-01-08T04:16:16.977Z,61.60
2019-01-08T04:17:20.535Z,61.46
2019-01-08T04:18:24.035Z,61.22
2019-01-08T04:19:27.552Z,61.01
2019-01-08T04:20:31.043Z,60.83
2019-01-08T04:21:34.647Z,60.61
2019-01-08T04:22:38.141Z,60.28
2019-01-08T04:23:41.646Z,60.22
2019-01-08T04:24:45.383Z,60.04
2019-01-08T04:25:48.952Z,59.97
2019-01-08T04:26:52.482Z,59.86
2019-01-08T04:27:55.991Z,59.90
2019-01-08T04:28:59.481Z,59.77
2019-01-08T04:30:03.159Z,59.84
2019-01-08T04:31:06.662Z,59.85
2019-01-08T04:32:10.170Z,59.74
2019-01-08T04:33:13.669Z,59.70
2019-01-08T04:34:17.230Z,59.83
2019-01-08T04:35:20.720Z,59.80
2019-01-08T04:36:24.205Z,60.00
2019-01-08T04:37:27.759Z,59.96
2019-01-08T04:38:31.271Z,60.00
2019-01-08T04:39:34.824Z,60.32
2019-01-08T04:40:38.422Z,60.12
2019-01-08T04:41:41.911Z,60.18
2019-01-08T04:42:45.547Z,60.25
2019-01-08T04:43:49.045Z,60.63
2019-01-08T04:44:52.531Z,60.69
2019-01-08T04:45:56.046Z,60.55
2019-01-08T04:46:59.566Z,60.51
2019-01-08T04:48:03.207Z,60.46
2019-01-08T04:49:06.720Z,60.36
2019-01-08T04:50:10.349Z,60.17
2019-01-08T04:51:13.918Z,60.08
2019-01-08T04:52:17.435Z,60.03
2019-01-08T04:53:20.953Z,60.04
2019-01-08T04:54:24.475Z,60.07
2019-01-08T04:55:27.974Z,60.04
2019-01-08T04:56:31.521Z,59.88
2019-01-08T04:57:35.105Z,59.82
2019-01-08T04:58:38.602Z,59.67
2019-01-08T04:59:42.202Z,59.65
2019-01-08T05:00:45.852Z,59.62
2019-01-08T05:01:49.411Z,59.54
2019-01-08T05:02:52.993Z,59.62
2019-01-08T05:03:56.534Z,59.62
2019-01-08T05:05:00.010Z,59.58
2019-01-08T05:06:03.636Z,59.79
2019-01-08T05:07:06.804Z,59.93
2019-01-08T05:08:10.351Z,59.89
2019-01-08T05:09:13.933Z,59.88
2019-01-08T05:10:17.485Z,59.83
2019-01-08T05:11:21.095Z,59.85
2019-01-08T05:12:24.597Z,59.86
2019-01-08T05:13:28.151Z,59.85
2019-01-08T05:14:31.692Z,59.95
2019-01-08T05:15:35.256Z,60.00
2019-01-08T05:16:38.741Z,60.13
2019-01-08T05:17:42.250Z,60.12
2019-01-08T05:18:45.986Z,60.16
2019-01-08T05:19:49.535Z,59.99
2019-01-08T05:20:53.121Z,60.01
2019-01-08T05:21:56.741Z,60.32
2019-01-08T05:23:00.272Z,60.29
2019-01-08T05:24:03.941Z,60.33
2019-01-08T05:25:07.553Z,60.25
2019-01-08T05:26:11.038Z,60.18
2019-01-08T05:27:14.594Z,60.08
2019-01-08T05:28:18.108Z,59.98
2019-01-08T05:29:21.646Z,59.55
2019-01-08T05:30:25.237Z,58.65
2019-01-08T05:31:28.769Z,58.57
2019-01-08T05:32:32.247Z,58.16
2019-01-08T05:33:35.821Z,58.28
2019-01-08T05:34:39.401Z,58.05
2019-01-08T05:35:43.088Z,57.78
2019-01-08T05:36:46.602Z,58.06
2019-01-08T05:37:50.176Z,58.19
2019-01-08T05:38:54.146Z,58.25
2019-01-08T05:39:57.765Z,58.37
2019-01-08T05:41:01.389Z,58.46
2019-01-08T05:42:04.895Z,58.56
2019-01-08T05:43:08.410Z,58.70
2019-01-08T05:44:11.980Z,58.74
2019-01-08T05:45:15.628Z,58.77
2019-01-08T05:46:19.152Z,58.82
2019-01-08T05:47:22.654Z,58.77
2019-01-08T05:48:26.322Z,58.76
2019-01-08T05:49:29.827Z,58.83
2019-01-08T05:50:33.413Z,58.85
2019-01-08T05:51:36.942Z,58.89
2019-01-08T05:52:40.500Z,58.87
2019-01-08T05:53:44.004Z,58.89
2019-01-08T05:54:47.573Z,58.97
2019-01-08T05:55:51.169Z,59.02
2019-01-08T05:56:54.698Z,59.09
2019-01-08T05:57:58.219Z,59.14
2019-01-08T05:59:01.776Z,59.23
2019-01-08T06:00:06.680Z,59.25
2019-01-08T06:01:10.212Z,59.25
2019-01-08T06:02:13.848Z,59.28
2019-01-08T06:03:17.435Z,59.31
2019-01-08T06:04:20.907Z,59.34
2019-01-08T06:05:24.410Z,59.33
2019-01-08T06:06:28.017Z,59.35
2019-01-08T06:07:31.833Z,59.29
2019-01-08T06:08:35.719Z,59.27
2019-01-08T06:09:39.289Z,59.22
2019-01-08T06:10:44.312Z,59.23
2019-01-08T06:11:47.839Z,59.23
2019-01-08T06:12:51.338Z,59.22
2019-01-08T06:13:54.848Z,59.23
2019-01-08T06:14:58.487Z,59.25
2019-01-08T06:16:02.051Z,59.25
2019-01-08T06:17:05.557Z,59.32
2019-01-08T06:18:09.127Z,59.38
2019-01-08T06:19:12.717Z,59.43
2019-01-08T06:20:16.287Z,59.46
2019-01-08T06:21:19.876Z,59.53
2019-01-08T06:22:23.385Z,59.57
2019-01-08T06:23:26.897Z,59.57
2019-01-08T06:24:30.486Z,59.50
2019-01-08T06:25:34.055Z,59.56
2019-01-08T06:26:37.606Z,59.53
2019-01-08T06:27:41.111Z,59.46
2019-01-08T06:28:44.882Z,59.49
2019-01-08T06:29:48.398Z,59.47
2019-01-08T06:30:51.926Z,59.49
2019-01-08T06:31:55.454Z,59.53
2019-01-08T06:32:58.963Z,59.55
2019-01-08T06:34:02.484Z,59.57
2019-01-08T06:35:06.710Z,59.58
2019-01-08T06:36:10.330Z,59.59
2019-01-08T06:37:13.881Z,59.64
2019-01-08T06:38:17.535Z,59.64
2019-01-08T06:39:21.050Z,59.62
2019-01-08T06:40:24.552Z,59.69
2019-01-08T06:41:28.146Z,59.74
2019-01-08T06:42:31.661Z,59.78
2019-01-08T06:43:35.162Z,59.74
2019-01-08T06:44:38.671Z,59.73
2019-01-08T06:45:42.200Z,59.70
2019-01-08T06:46:45.712Z,59.68
2019-01-08T06:47:49.207Z,59.65
2019-01-08T06:48:52.725Z,59.60
2019-01-08T06:49:56.255Z,59.61
2019-01-08T06:50:59.790Z,59.59
2019-01-08T06:52:03.364Z,59.63
2019-01-08T06:53:06.871Z,59.64
2019-01-08T06:54:10.380Z,59.64
2019-01-08T06:55:13.957Z,59.68
2019-01-08T06:56:17.478Z,59.71
2019-01-08T06:57:20.994Z,59.73
2019-01-08T06:58:24.489Z,59.74
2019-01-08T06:59:28.082Z,59.69
2019-01-08T07:00:33.538Z,59.79
2019-01-08T07:01:36.899Z,59.72
2019-01-08T07:02:40.388Z,59.71
2019-01-08T07:03:43.913Z,59.71
2019-01-08T07:04:47.503Z,59.74
2019-01-08T07:05:51.119Z,59.74
2019-01-08T07:06:54.657Z,59.69
2019-01-08T07:07:58.177Z,59.71
2019-01-08T07:09:01.758Z,59.69
2019-01-08T07:10:07.229Z,59.71
2019-01-08T07:11:10.786Z,59.70
2019-01-08T07:12:14.369Z,59.69
2019-01-08T07:13:17.863Z,59.68
2019-01-08T07:14:21.378Z,59.74
2019-01-08T07:15:24.911Z,59.77
2019-01-08T07:16:28.488Z,59.78
2019-01-08T07:17:32.010Z,59.85
2019-01-08T07:18:35.499Z,59.79
2019-01-08T07:19:39.003Z,59.77
2019-01-08T07:20:42.561Z,59.76
2019-01-08T07:21:46.135Z,59.76
2019-01-08T07:22:49.651Z,59.67
2019-01-08T07:23:53.151Z,59.70
2019-01-08T07:24:56.779Z,59.69
2019-01-08T07:26:00.294Z,59.73
2019-01-08T07:27:03.873Z,59.65
2019-01-08T07:28:07.381Z,59.70
2019-01-08T07:29:10.900Z,59.70
2019-01-08T07:30:15.007Z,59.72
2019-01-08T07:31:18.513Z,59.79
2019-01-08T07:32:22.081Z,59.83
2019-01-08T07:33:25.576Z,59.81
2019-01-08T07:34:29.110Z,59.81
2019-01-08T07:35:32.655Z,59.85
2019-01-08T07:36:36.230Z,59.83
2019-01-08T07:37:39.801Z,59.59
2019-01-08T07:38:43.315Z,59.09
2019-01-08T07:39:46.834Z,58.83
2019-01-08T07:40:50.340Z,57.96
2019-01-08T07:41:53.917Z,56.63
2019-01-08T07:42:57.409Z,56.93
2019-01-08T07:44:00.937Z,57.06
2019-01-08T07:45:05.398Z,56.15
2019-01-08T07:46:08.919Z,54.85
2019-01-08T07:47:12.435Z,52.26
2019-01-08T07:48:15.949Z,52.80
2019-01-08T07:49:19.486Z,51.57
2019-01-08T07:50:22.987Z,52.29
2019-01-08T07:51:26.576Z,52.62
2019-01-08T07:52:30.132Z,52.77
2019-01-08T07:53:33.628Z,52.22
2019-01-08T07:54:37.156Z,52.21
2019-01-08T07:55:40.665Z,52.73
2019-01-08T07:56:44.225Z,52.62
2019-01-08T07:57:47.730Z,50.99
2019-01-08T07:58:51.549Z,50.59
2019-01-08T07:59:57.514Z,49.67
2019-01-08T08:01:01.116Z,49.83
2019-01-08T08:02:06.733Z,50.00
2019-01-08T08:03:10.099Z,49.33
2019-01-08T08:04:13.664Z,48.78
2019-01-08T08:05:17.203Z,48.99
2019-01-08T08:06:20.713Z,48.87
2019-01-08T08:07:24.193Z,49.20
2019-01-08T08:08:27.706Z,49.33
2019-01-08T08:09:31.198Z,49.34
2019-01-08T08:10:34.705Z,48.84
2019-01-08T08:11:38.223Z,48.85
2019-01-08T08:12:41.701Z,48.45
2019-01-08T08:13:45.222Z,48.37
2019-01-08T08:14:48.734Z,47.91
2019-01-08T08:15:52.238Z,47.83
2019-01-08T08:16:55.744Z,47.64
2019-01-08T08:17:59.298Z,47.42
2019-01-08T08:19:02.793Z,47.31
2019-01-08T08:20:07.935Z,47.29
2019-01-08T08:21:11.518Z,46.93
2019-01-08T08:22:15.041Z,47.04
2019-01-08T08:23:18.540Z,46.77
2019-01-08T08:24:22.096Z,46.85
2019-01-08T08:25:25.615Z,46.71
2019-01-08T08:26:29.594Z,46.90
2019-01-08T08:27:33.261Z,46.97
2019-01-08T08:28:36.902Z,46.89
2019-01-08T08:29:40.380Z,46.92
2019-01-08T08:30:43.891Z,46.85
2019-01-08T08:31:47.424Z,46.87
2019-01-08T08:32:50.985Z,47.10
2019-01-08T08:33:54.687Z,47.15
2019-01-08T08:34:58.241Z,47.22
2019-01-08T08:36:01.798Z,47.07
2019-01-08T08:37:05.324Z,47.22
2019-01-08T08:38:09.020Z,47.45
2019-01-08T08:39:12.600Z,47.52
2019-01-08T08:40:16.271Z,47.66
2019-01-08T08:41:19.767Z,47.81
2019-01-08T08:42:23.301Z,47.82
2019-01-08T08:43:26.940Z,47.96
2019-01-08T08:44:30.568Z,48.13
2019-01-08T08:45:34.085Z,48.23
2019-01-08T08:46:37.786Z,48.42
2019-01-08T08:47:41.335Z,48.59
2019-01-08T08:48:44.838Z,48.70
2019-01-08T08:49:48.333Z,48.84
2019-01-08T08:50:51.837Z,49.15
2019-01-08T08:51:55.327Z,49.31
2019-01-08T08:52:58.831Z,49.50
2019-01-08T08:54:02.410Z,49.68
2019-01-08T08:55:06.235Z,49.76
2019-01-08T08:56:09.755Z,49.87
2019-01-08T08:57:13.332Z,49.99
2019-01-08T08:58:16.847Z,50.16
2019-01-08T08:59:20.366Z,50.22
2019-01-08T09:00:23.917Z,50.29
2019-01-08T09:01:27.399Z,50.49
2019-01-08T09:02:30.934Z,50.68
2019-01-08T09:03:34.433Z,50.74
2019-01-08T09:04:38.033Z,50.92
2019-01-08T09:05:41.568Z,51.08
2019-01-08T09:06:45.058Z,51.29
2019-01-08T09:07:48.556Z,51.43
2019-01-08T09:08:52.061Z,51.61
2019-01-08T09:09:55.555Z,51.68
2019-01-08T09:10:59.041Z,51.75
2019-01-08T09:12:02.536Z,51.71
2019-01-08T09:13:06.103Z,51.87
2019-01-08T09:14:09.627Z,51.82
2019-01-08T09:15:13.263Z,51.86
2019-01-08T09:16:16.759Z,51.92
2019-01-08T09:17:20.258Z,51.93
2019-01-08T09:18:23.835Z,52.06
2019-01-08T09:19:27.428Z,52.05
2019-01-08T09:20:31.176Z,52.18
2019-01-08T09:21:34.704Z,52.25
2019-01-08T09:22:38.194Z,52.28
2019-01-08T09:23:41.685Z,52.41
2019-01-08T09:24:45.205Z,52.41
2019-01-08T09:25:48.708Z,52.52
2019-01-08T09:26:52.193Z,52.61
2019-01-08T09:27:55.748Z,52.80
2019-01-08T09:28:59.260Z,52.85
2019-01-08T09:30:03.029Z,52.89
2019-01-08T09:31:15.128Z,53.06
2019-01-08T09:32:12.024Z,52.96
2019-01-08T09:33:15.590Z,53.21
2019-01-08T09:34:19.095Z,53.36
2019-01-08T09:35:22.684Z,53.54
2019-01-08T09:36:26.183Z,53.62
2019-01-08T09:37:29.792Z,53.55
2019-01-08T09:38:33.327Z,53.79
2019-01-08T09:39:36.866Z,53.90
2019-01-08T09:40:40.397Z,53.97
2019-01-08T09:41:43.926Z,54.07
2019-01-08T09:42:47.418Z,54.04
2019-01-08T09:43:50.929Z,54.05
2019-01-08T09:44:54.430Z,53.95
2019-01-08T09:45:57.951Z,54.13
2019-01-08T09:47:01.448Z,54.03
2019-01-08T09:48:05.016Z,53.97
2019-01-08T09:49:08.581Z,53.86
2019-01-08T09:50:12.084Z,53.74
2019-01-08T09:51:15.669Z,53.81
2019-01-08T09:52:19.221Z,53.55
2019-01-08T09:53:22.787Z,53.60
2019-01-08T09:54:26.276Z,53.77
2019-01-08T09:55:29.767Z,53.55
2019-01-08T09:56:33.383Z,53.66
2019-01-08T09:57:37.005Z,53.57
2019-01-08T09:58:40.499Z,53.64
2019-01-08T09:59:44.131Z,53.73
2019-01-08T10:00:47.641Z,53.80
2019-01-08T10:01:51.224Z,53.87
2019-01-08T10:02:54.772Z,53.90
2019-01-08T10:03:58.479Z,53.97
2019-01-08T10:05:02.043Z,54.18
2019-01-08T10:06:05.525Z,53.99
2019-01-08T10:07:09.158Z,53.99
2019-01-08T10:08:12.830Z,53.99
2019-01-08T10:09:16.410Z,54.08
2019-01-08T10:10:19.999Z,54.20
2019-01-08T10:11:23.588Z,54.27
2019-01-08T10:12:27.181Z,54.30
2019-01-08T10:13:30.687Z,54.29
2019-01-08T10:14:34.174Z,54.17
2019-01-08T10:15:37.685Z,54.33
2019-01-08T10:16:41.162Z,54.49
2019-01-08T10:17:44.820Z,54.52
2019-01-08T10:18:48.428Z,54.51
2019-01-08T10:19:52.106Z,54.58
2019-01-08T10:20:55.661Z,54.67
2019-01-08T10:21:59.413Z,54.71
2019-01-08T10:23:10.042Z,54.70
2019-01-08T10:24:08.283Z,54.87
2019-01-08T10:25:12.009Z,54.92
2019-01-08T10:26:15.540Z,54.95
2019-01-08T10:27:19.137Z,55.01
2019-01-08T10:28:22.790Z,55.13
2019-01-08T10:29:26.306Z,55.08
2019-01-08T10:30:29.916Z,55.24
2019-01-08T10:31:33.476Z,55.07
2019-01-08T10:32:37.003Z,55.15
2019-01-08T10:33:40.513Z,55.19
2019-01-08T10:34:44.147Z,55.14
2019-01-08T10:35:47.729Z,55.18
2019-01-08T10:36:51.218Z,55.46
2019-01-08T10:37:54.863Z,55.34
2019-01-08T10:38:58.388Z,55.36
2019-01-08T10:40:02.020Z,55.36
2019-01-08T10:41:05.546Z,55.48
2019-01-08T10:42:09.152Z,55.60
2019-01-08T10:43:12.716Z,55.61
2019-01-08T10:44:16.250Z,55.61
2019-01-08T10:45:19.808Z,55.72
2019-01-08T10:46:23.359Z,55.70
2019-01-08T10:47:27.036Z,55.68
2019-01-08T10:48:30.515Z,55.71
2019-01-08T10:49:34.225Z,55.68
2019-01-08T10:50:37.970Z,55.67
2019-01-08T10:51:41.602Z,55.66
2019-01-08T10:52:45.256Z,55.74
2019-01-08T10:53:48.808Z,55.75
2019-01-08T10:54:52.681Z,55.80
2019-01-08T10:55:56.406Z,55.87
2019-01-08T10:57:00.081Z,55.84
2019-01-08T10:58:04.304Z,55.89
2019-01-08T10:59:08.031Z,55.91
2019-01-08T11:00:12.018Z,55.92
2019-01-08T11:01:17.398Z,56.00
2019-01-08T11:02:20.901Z,55.91
2019-01-08T11:03:24.736Z,55.91
2019-01-08T11:04:28.386Z,56.00
2019-01-08T11:05:32.372Z,55.93
2019-01-08T11:06:36.052Z,55.96
2019-01-08T11:07:39.651Z,55.86
2019-01-08T11:08:43.341Z,55.82
2019-01-08T11:09:47.089Z,55.82
2019-01-08T11:10:50.726Z,55.77
2019-01-08T11:11:54.364Z,55.74
2019-01-08T11:12:58.005Z,55.80
2019-01-08T11:14:01.625Z,54.76
2019-01-08T11:15:07.668Z,54.55
2019-01-08T11:16:11.305Z,54.88
2019-01-08T11:17:14.783Z,54.25
2019-01-08T11:18:18.430Z,54.52
2019-01-08T11:19:22.082Z,54.95
2019-01-08T11:20:25.785Z,54.40
2019-01-08T11:21:29.369Z,53.79
2019-01-08T11:22:33.027Z,53.58
2019-01-08T11:23:39.632Z,53.76
2019-01-08T11:24:43.343Z,53.86
2019-01-08T11:25:46.948Z,53.73
2019-01-08T11:26:50.587Z,53.56
2019-01-08T11:27:54.387Z,53.40
2019-01-08T11:28:58.080Z,53.40
2019-01-08T11:30:01.791Z,53.42
2019-01-08T11:31:05.406Z,53.25
2019-01-08T11:32:09.008Z,53.37
2019-01-08T11:33:12.598Z,53.22
2019-01-08T11:34:16.340Z,53.33
2019-01-08T11:35:20.177Z,53.33
2019-01-08T11:36:23.936Z,53.36
2019-01-08T11:37:27.425Z,53.40
2019-01-08T11:38:31.069Z,53.42
2019-01-08T11:39:34.706Z,53.50
2019-01-08T11:40:38.264Z,53.49
2019-01-08T11:41:41.865Z,53.71
2019-01-08T11:42:45.658Z,53.78
2019-01-08T11:43:49.174Z,53.77
2019-01-08T11:44:52.937Z,53.75
2019-01-08T11:45:56.671Z,53.78
2019-01-08T11:47:00.355Z,53.97
2019-01-08T11:48:04.495Z,54.07
2019-01-08T11:49:08.089Z,54.10
2019-01-08T11:50:11.750Z,54.15
2019-01-08T11:51:15.270Z,54.28
2019-01-08T11:52:19.167Z,54.32
2019-01-08T11:53:22.796Z,54.42
2019-01-08T11:54:26.359Z,54.56
2019-01-08T11:55:29.842Z,54.69
2019-01-08T11:56:34.965Z,54.88
2019-01-08T11:57:38.482Z,54.95
2019-01-08T11:58:42.405Z,55.05
2019-01-08T11:59:46.004Z,55.11
2019-01-08T12:00:51.181Z,55.18
2019-01-08T12:01:57.448Z,55.25
2019-01-08T12:02:59.944Z,55.29
2019-01-08T12:04:03.517Z,55.33
2019-01-08T12:05:07.135Z,55.40
2019-01-08T12:06:10.686Z,55.39
2019-01-08T12:07:14.269Z,55.44
2019-01-08T12:08:17.802Z,55.48
2019-01-08T12:09:21.363Z,55.20
2019-01-08T12:10:24.867Z,54.66
2019-01-08T12:11:28.478Z,54.43
2019-01-08T12:12:31.959Z,54.52
2019-01-08T12:13:35.559Z,54.40
2019-01-08T12:14:39.110Z,54.55
2019-01-08T12:15:42.659Z,55.44
2019-01-08T12:16:46.306Z,55.78
2019-01-08T12:17:49.877Z,55.83
2019-01-08T12:18:53.386Z,55.60
2019-01-08T12:19:56.975Z,55.85
2019-01-08T12:21:00.466Z,56.21
2019-01-08T12:22:04.038Z,55.77
2019-01-08T12:23:07.583Z,55.78
2019-01-08T12:24:11.098Z,55.80
2019-01-08T12:25:14.677Z,55.68
2019-01-08T12:26:18.272Z,55.51
2019-01-08T12:27:21.732Z,55.57
2019-01-08T12:28:25.314Z,55.56
2019-01-08T12:29:28.831Z,55.47
2019-01-08T12:30:32.469Z,55.63
2019-01-08T12:31:36.026Z,55.79
2019-01-08T12:32:39.562Z,55.76
2019-01-08T12:33:43.079Z,55.74
2019-01-08T12:34:46.623Z,55.76
2019-01-08T12:35:50.126Z,55.75
2019-01-08T12:36:53.693Z,55.70
2019-01-08T12:37:57.237Z,55.67
2019-01-08T12:39:00.749Z,55.59
2019-01-08T12:40:05.778Z,55.48
2019-01-08T12:41:09.304Z,55.21
2019-01-08T12:42:12.942Z,55.53
2019-01-08T12:43:16.439Z,55.66
2019-01-08T12:44:20.079Z,55.71
2019-01-08T12:45:23.676Z,55.68
2019-01-08T12:46:27.259Z,55.66
2019-01-08T12:47:30.799Z,55.63
2019-01-08T12:48:34.298Z,55.67
2019-01-08T12:49:37.795Z,55.69
2019-01-08T12:50:41.480Z,55.65
2019-01-08T12:51:45.380Z,55.62
2019-01-08T12:52:48.905Z,55.47
2019-01-08T12:53:52.407Z,54.92
2019-01-08T12:54:56.061Z,54.84
2019-01-08T12:55:59.563Z,54.69
2019-01-08T12:57:03.090Z,54.83
2019-01-08T12:58:07.251Z,54.98
2019-01-08T12:59:10.875Z,55.09
2019-01-08T13:00:14.499Z,55.24
2019-01-08T13:01:18.105Z,55.33
2019-01-08T13:02:21.685Z,55.37
2019-01-08T13:03:25.731Z,55.34
2019-01-08T13:04:30.635Z,55.38
2019-01-08T13:05:34.188Z,55.39
2019-01-08T13:06:38.160Z,55.35
2019-01-08T13:07:41.888Z,55.37
2019-01-08T13:08:45.558Z,55.36
2019-01-08T13:09:49.076Z,55.34
2019-01-08T13:10:52.988Z,55.30
2019-01-08T13:11:56.641Z,55.32
2019-01-08T13:13:00.311Z,55.33
2019-01-08T13:14:04.218Z,55.31
2019-01-08T13:15:08.077Z,55.36
2019-01-08T13:16:11.756Z,55.38
2019-01-08T13:17:15.346Z,55.32
2019-01-08T13:18:18.884Z,55.33
2019-01-08T13:19:22.443Z,55.42
2019-01-08T13:20:26.025Z,55.47
2019-01-08T13:21:29.675Z,55.49
2019-01-08T13:22:33.168Z,55.49
2019-01-08T13:23:36.679Z,55.53
2019-01-08T13:24:40.244Z,55.59
2019-01-08T13:25:43.753Z,55.70
2019-01-08T13:26:47.283Z,55.64
2019-01-08T13:27:50.961Z,55.65
2019-01-08T13:28:54.444Z,55.58
2019-01-08T13:29:59.049Z,55.73
2019-01-08T13:31:02.613Z,55.78
2019-01-08T13:32:06.125Z,55.80
2019-01-08T13:33:15.295Z,55.82
2019-01-08T13:34:18.872Z,55.84
2019-01-08T13:35:22.449Z,55.93
2019-01-08T13:36:26.110Z,55.98
2019-01-08T13:37:29.686Z,56.04
2019-01-08T13:38:33.186Z,56.14
2019-01-08T13:39:36.705Z,56.06